Terminal Aerodrome Forecast
Issued by NWS

Home | Current Version | Previous Version | Text Only | Print | Product List | Glossary On
Versions: 1 2 3 4 5 6 7 8 9 10 11 12 13 14 15 16
583
FTAK31 PAJN 261735
TAFAPG
TAF
PAPG 261735Z 2618/2718 VRB03KT P6SM SCT060 BKN120
     FM262000 06005KT P6SM SCT070 OVC110
     FM270500 10006KT P6SM VCSH OVC060
     FM270800 11006KT 6SM -RA BR SCT020 OVC040
     FM271200 11008KT 4SM -RA BR BKN015 OVC025
      AMD LTD TO CLD VIS AND WIND 2706/2715=

USA.gov is the U.S. government's official web portal to all federal, state and local government web resources and services.